Time;durP1;ratioP1;P1;durP2;ratioP2;P2;SDS_P1;SDS_P2;PMS_P1;PMS_P2;Temp;Humidity;BMP_temperature;BMP_pressure;BME280_temperature;BME280_humidity;BME280_pressure;Samples;Min_cycle;Max_cycle;Signal;HPM_P1;HPM_P2
2023/12/25 00:02:21;;;;;;;;;66.00;53.25;;;;;9.79;41.66;98900.44;5066332;28;8953;-78
2023/12/25 00:04:50;;;;;;;;;65.50;53.00;;;;;9.84;41.97;98897.69;5066010;28;9718;-78
2023/12/25 00:07:19;;;;;;;;;66.75;53.25;;;;;9.82;41.56;98900.34;5032620;28;8998;-78
2023/12/25 00:09:48;;;;;;;;;60.00;49.25;;;;;9.80;41.06;98898.66;5063630;28;8848;-79
2023/12/25 00:12:18;;;;;;;;;65.25;51.50;;;;;9.77;41.57;98901.41;5066085;28;8862;-78
2023/12/25 00:14:49;;;;;;;;;68.25;51.50;;;;;9.84;40.85;98918.69;5049241;28;8859;-78
2023/12/25 00:17:18;;;;;;;;;63.75;52.25;;;;;9.85;41.77;98914.31;5049382;28;8876;-79
2023/12/25 00:19:47;;;;;;;;;60.25;48.75;;;;;9.93;41.36;98925.44;5016636;28;8848;-77
2023/12/25 00:22:16;;;;;;;;;64.75;51.25;;;;;9.92;41.14;98931.59;5032729;28;8870;-79
2023/12/25 00:24:45;;;;;;;;;46.50;38.00;;;;;9.97;41.70;98912.19;5066902;28;8846;-78
2023/12/25 00:27:14;;;;;;;;;68.25;54.25;;;;;10.00;43.23;98913.88;5063774;28;8853;-78
2023/12/25 00:29:44;;;;;;;;;65.75;51.00;;;;;10.00;42.22;98916.50;5051879;28;8850;-79
2023/12/25 00:32:15;;;;;;;;;64.25;52.00;;;;;10.02;41.71;98919.94;5068389;28;8870;-78
2023/12/25 00:34:44;;;;;;;;;66.25;54.25;;;;;10.01;42.00;98915.59;5067546;28;8846;-79
2023/12/25 00:37:14;;;;;;;;;55.25;45.50;;;;;10.01;41.69;98916.44;5050472;28;9058;-78
2023/12/25 00:39:43;;;;;;;;;55.50;46.50;;;;;10.00;42.64;98921.72;5050388;28;8851;-78
2023/12/25 00:42:12;;;;;;;;;55.25;45.00;;;;;9.96;42.13;98917.47;5065641;28;8962;-78
2023/12/25 00:44:42;;;;;;;;;50.75;41.50;;;;;9.98;42.14;98919.16;5067565;28;8877;-78
2023/12/25 00:47:10;;;;;;;;;43.25;37.75;;;;;10.03;41.72;98913.78;5066996;28;8843;-78
2023/12/25 00:49:41;;;;;;;;;54.00;44.50;;;;;9.99;42.00;98922.66;5066576;28;8879;-78
2023/12/25 00:52:12;;;;;;;;;46.25;38.75;;;;;10.01;41.90;98934.81;5066462;28;8862;-77
2023/12/25 00:54:41;;;;;;;;;48.50;38.00;;;;;10.00;41.93;98938.34;5066861;28;9295;-78
2023/12/25 00:57:10;;;;;;;;;39.25;36.25;;;;;10.03;41.86;98945.28;5065512;28;8854;-78
2023/12/25 00:59:39;;;;;;;;;38.20;35.00;;;;;10.08;41.38;98953.03;5053320;28;8856;-78
2023/12/25 01:02:08;;;;;;;;;34.80;31.20;;;;;10.06;41.37;98958.31;5032940;28;8895;-78
2023/12/25 01:04:38;;;;;;;;;37.00;33.25;;;;;10.05;42.77;98959.25;5049628;28;8869;-78
2023/12/25 01:07:08;;;;;;;;;34.80;30.20;;;;;10.08;42.58;98960.91;5050268;28;8883;-78
2023/12/25 01:09:37;;;;;;;;;37.20;32.60;;;;;10.14;42.07;98961.59;5038099;28;8892;-79
2023/12/25 01:12:07;;;;;;;;;35.20;33.00;;;;;10.19;41.49;98962.31;5043896;28;8874;-79
2023/12/25 01:14:36;;;;;;;;;40.00;33.80;;;;;10.20;41.98;98963.19;5019603;28;8854;-79
2023/12/25 01:17:05;;;;;;;;;32.00;31.20;;;;;10.17;42.51;98960.66;5068916;28;8883;-78
2023/12/25 01:19:34;;;;;;;;;33.60;30.40;;;;;10.17;42.78;98958.88;5019191;28;9600;-77
2023/12/25 01:22:03;;;;;;;;;40.60;36.00;;;;;10.20;42.46;98948.28;5019222;28;8862;-77
2023/12/25 01:24:34;;;;;;;;;43.50;37.50;;;;;10.11;41.62;98932.78;5052099;28;8848;-78
2023/12/25 01:27:03;;;;;;;;;38.40;34.40;;;;;10.03;42.11;98934.78;5047418;28;9113;-77
2023/12/25 01:29:32;;;;;;;;;40.25;32.75;;;;;10.01;41.83;98940.06;5033052;28;8899;-78
2023/12/25 01:32:01;;;;;;;;;38.20;34.60;;;;;10.04;42.05;98947.00;5032761;28;8930;-77
2023/12/25 01:34:30;;;;;;;;;27.80;27.80;;;;;10.10;42.01;98948.59;5032368;28;8962;-77
2023/12/25 01:37:00;;;;;;;;;37.40;30.20;;;;;10.08;42.59;98938.13;5053190;28;8853;-77
2023/12/25 01:39:30;;;;;;;;;38.00;33.80;;;;;10.05;41.89;98922.47;5059484;28;8837;-79
2023/12/25 01:42:00;;;;;;;;;32.80;31.00;;;;;10.12;42.90;98917.88;5070138;28;8866;-79
2023/12/25 01:44:29;;;;;;;;;34.00;32.60;;;;;10.10;42.29;98915.31;5070360;28;8908;-78
2023/12/25 01:46:59;;;;;;;;;32.00;31.00;;;;;10.09;42.46;98910.13;5071918;28;8977;-77
2023/12/25 01:49:29;;;;;;;;;30.40;28.60;;;;;10.08;41.82;98918.88;5070186;28;8827;-77
2023/12/25 01:51:59;;;;;;;;;32.00;29.60;;;;;10.10;42.72;98938.09;5051429;28;8870;-77
2023/12/25 01:54:28;;;;;;;;;34.20;31.60;;;;;10.13;42.25;98932.75;5033569;28;8866;-78
2023/12/25 01:57:01;;;;;;;;;35.60;31.40;;;;;10.08;42.43;98932.88;5029926;28;8880;-78
2023/12/25 01:59:30;;;;;;;;;42.80;34.00;;;;;10.06;42.44;98929.44;5064874;28;8869;-79
2023/12/25 02:02:00;;;;;;;;;42.60;35.80;;;;;10.07;42.06;98918.03;5031366;28;9016;-80
2023/12/25 02:04:29;;;;;;;;;39.60;35.80;;;;;10.06;41.88;98910.19;5031886;28;8850;-78
2023/12/25 02:06:58;;;;;;;;;36.20;34.60;;;;;10.07;43.09;98909.31;5047983;28;8869;-77
2023/12/25 02:09:28;;;;;;;;;41.20;36.20;;;;;10.09;43.04;98921.47;5030489;28;9615;-78
2023/12/25 02:11:58;;;;;;;;;40.60;34.80;;;;;10.14;42.04;98921.31;5029379;28;9028;-77
2023/12/25 02:14:29;;;;;;;;;33.20;32.00;;;;;10.25;42.28;98908.75;5048346;28;8903;-76
2023/12/25 02:16:58;;;;;;;;;36.20;31.60;;;;;10.23;42.99;98913.19;5006599;28;9005;-78
2023/12/25 02:19:33;;;;;;;;;31.00;28.40;;;;;10.14;43.01;98914.34;5031188;28;8834;-76
2023/12/25 02:22:03;;;;;;;;;23.60;16.20;;;;;10.13;42.02;98903.88;5031393;28;9596;-79
2023/12/25 02:24:33;;;;;;;;;21.20;20.40;;;;;10.03;42.68;98913.78;5064551;28;8861;-79
2023/12/25 02:27:03;;;;;;;;;35.00;31.40;;;;;10.09;42.40;98912.75;5032272;28;8888;-77
2023/12/25 02:29:33;;;;;;;;;34.80;31.60;;;;;10.07;43.60;98904.91;5043179;28;9006;-77
2023/12/25 02:32:02;;;;;;;;;27.80;23.60;;;;;10.10;42.30;98904.78;5059602;28;8874;-77
2023/12/25 02:34:31;;;;;;;;;30.80;29.80;;;;;10.02;42.25;98904.16;5069249;28;8896;-77
2023/12/25 02:37:00;;;;;;;;;27.40;25.20;;;;;10.10;42.32;98893.44;5053365;28;8850;-77
2023/12/25 02:39:30;;;;;;;;;32.20;27.20;;;;;10.15;43.56;98899.44;5069114;28;8876;-77
2023/12/25 02:41:59;;;;;;;;;30.40;27.20;;;;;10.16;43.21;98902.00;4999778;28;8862;-77
2023/12/25 02:44:29;;;;;;;;;30.80;29.60;;;;;10.14;42.35;98902.94;5052058;28;8915;-78
2023/12/25 02:46:58;;;;;;;;;31.80;29.00;;;;;10.12;42.26;98892.50;5068923;28;8862;-77
2023/12/25 02:49:27;;;;;;;;;30.40;29.20;;;;;10.08;42.37;98893.47;5069026;28;8850;-77
2023/12/25 02:51:56;;;;;;;;;27.40;26.40;;;;;10.08;42.22;98895.25;5051849;28;8963;-78
2023/12/25 02:54:25;;;;;;;;;28.40;24.20;;;;;10.01;42.81;98892.81;5068672;28;8861;-79
2023/12/25 02:56:54;;;;;;;;;27.60;27.00;;;;;10.01;42.72;98884.09;5065505;28;9619;-78
2023/12/25 02:59:23;;;;;;;;;29.20;27.80;;;;;9.92;43.69;98871.22;5018605;28;8983;-77
2023/12/25 03:01:54;;;;;;;;;31.80;31.00;;;;;9.91;44.23;98877.38;5068621;28;8858;-78
2023/12/25 03:04:23;;;;;;;;;32.60;30.80;;;;;9.92;43.26;98877.31;5068385;28;8891;-78
2023/12/25 03:06:52;;;;;;;;;27.80;26.80;;;;;9.93;42.78;98872.94;5064868;28;8866;-77
2023/12/25 03:09:21;;;;;;;;;28.20;27.40;;;;;9.87;43.33;98881.00;5048531;28;8860;-78
2023/12/25 03:11:50;;;;;;;;;28.60;24.60;;;;;9.93;43.46;98886.06;5050647;28;8853;-78
2023/12/25 03:14:19;;;;;;;;;32.20;28.40;;;;;9.56;43.41;98906.28;5014987;28;8845;-78
2023/12/25 03:16:48;;;;;;;;;32.80;29.60;;;;;9.83;43.50;98914.34;5061027;28;8887;-77
2023/12/25 03:19:19;;;;;;;;;28.40;24.80;;;;;9.91;43.77;98920.22;5058791;28;8883;-78
2023/12/25 03:21:48;;;;;;;;;29.20;28.40;;;;;10.01;43.31;98926.09;5051081;28;8862;-77
2023/12/25 03:24:17;;;;;;;;;25.60;25.20;;;;;10.02;43.09;98920.78;5068255;28;8850;-79
2023/12/25 03:26:47;;;;;;;;;27.40;27.40;;;;;10.11;42.98;98921.44;5066279;28;8884;-78
2023/12/25 03:29:16;;;;;;;;;21.20;19.60;;;;;10.17;42.53;98911.59;5068079;28;8850;-78
2023/12/25 03:31:45;;;;;;;;;29.80;26.60;;;;;10.21;42.62;98905.34;5069590;28;8888;-78
2023/12/25 03:34:18;;;;;;;;;27.20;25.80;;;;;10.19;42.95;98909.78;5049863;28;8833;-77
2023/12/25 03:36:48;;;;;;;;;28.60;24.40;;;;;10.18;43.01;98908.09;5049730;28;9001;-77
2023/12/25 03:39:18;;;;;;;;;29.20;27.00;;;;;10.21;42.41;98907.97;5065386;28;8865;-77
2023/12/25 03:41:47;;;;;;;;;29.00;26.60;;;;;10.25;41.91;98903.47;5064247;28;8862;-78
2023/12/25 03:44:16;;;;;;;;;27.80;26.60;;;;;10.30;42.46;98911.25;5065077;28;8872;-78
2023/12/25 03:46:45;;;;;;;;;28.80;25.40;;;;;10.27;42.30;98906.94;5057924;28;8839;-78
2023/12/25 03:49:14;;;;;;;;;30.20;26.60;;;;;10.16;43.00;98899.38;5051563;28;8866;-78
2023/12/25 03:51:43;;;;;;;;;23.40;22.60;;;;;10.14;43.01;98906.47;5050956;28;9654;-78
2023/12/25 03:54:15;;;;;;;;;26.20;23.00;;;;;10.14;42.70;98898.56;5067470;28;9631;-77
2023/12/25 03:56:44;;;;;;;;;20.00;19.40;;;;;10.00;42.43;98901.59;5065476;28;8951;-77
2023/12/25 03:59:13;;;;;;;;;26.00;23.00;;;;;10.01;42.74;98902.47;5047413;28;8858;-77
2023/12/25 04:01:44;;;;;;;;;30.00;23.20;;;;;10.02;42.31;98897.16;5045956;28;8955;-79
2023/12/25 04:04:13;;;;;;;;;19.40;18.80;;;;;10.00;42.47;98890.22;5046256;28;9809;-77
2023/12/25 04:06:43;;;;;;;;;19.60;19.00;;;;;9.95;42.08;98895.63;5052013;28;8838;-77
2023/12/25 04:09:12;;;;;;;;;24.00;19.60;;;;;9.81;42.06;98898.63;5047429;28;8874;-78
2023/12/25 04:11:42;;;;;;;;;21.40;19.60;;;;;9.87;42.14;98894.13;5013095;28;9008;-79
2023/12/25 04:14:11;;;;;;;;;18.40;17.40;;;;;9.88;42.80;98891.44;5031403;28;8842;-79
2023/12/25 04:16:40;;;;;;;;;14.40;13.80;;;;;9.86;42.07;98884.50;5046013;28;8904;-81
2023/12/25 04:19:09;;;;;;;;;21.80;21.60;;;;;9.84;41.80;98891.56;4996815;28;8877;-78
2023/12/25 04:21:39;;;;;;;;;22.00;20.80;;;;;9.81;42.29;98882.88;5012788;28;8895;-79
2023/12/25 04:24:08;;;;;;;;;16.00;16.00;;;;;9.83;41.89;98882.84;4996988;28;8885;-76
2023/12/25 04:26:38;;;;;;;;;17.20;16.60;;;;;9.74;42.43;98883.94;5005345;28;8873;-77
2023/12/25 04:29:09;;;;;;;;;16.00;15.20;;;;;9.87;41.66;98888.88;4997109;28;8833;-78
2023/12/25 04:31:38;;;;;;;;;20.00;20.00;;;;;9.88;41.31;98878.31;4990179;28;9654;-80
2023/12/25 04:34:07;;;;;;;;;17.80;16.60;;;;;9.77;41.39;98880.41;4989168;28;8889;-79
2023/12/25 04:36:37;;;;;;;;;19.20;18.40;;;;;9.86;41.79;98890.63;5003399;28;8854;-77
2023/12/25 04:39:06;;;;;;;;;17.40;17.40;;;;;9.86;40.91;98884.50;5025976;28;9059;-78
2023/12/25 04:41:35;;;;;;;;;13.40;13.20;;;;;9.90;40.41;98887.00;5029433;28;8904;-77
2023/12/25 04:44:04;;;;;;;;;16.60;15.40;;;;;9.90;40.36;98896.66;5012117;28;9576;-79
2023/12/25 04:46:35;;;;;;;;;11.80;11.80;;;;;9.88;40.42;98891.44;5029144;28;9116;-78
2023/12/25 04:49:05;;;;;;;;;16.80;16.40;;;;;9.94;40.42;98887.78;5029596;28;8830;-79
2023/12/25 04:51:34;;;;;;;;;15.40;13.40;;;;;9.96;39.94;98884.22;5005356;28;8878;-77
2023/12/25 04:54:04;;;;;;;;;11.60;11.40;;;;;9.97;39.69;98882.44;5032221;28;8886;-77
2023/12/25 04:56:33;;;;;;;;;14.60;13.60;;;;;9.91;39.81;98886.09;4996397;28;8846;-79
2023/12/25 04:59:02;;;;;;;;;14.60;12.80;;;;;10.00;39.10;98887.59;5032694;28;8846;-76
2023/12/25 05:01:31;;;;;;;;;13.00;12.00;;;;;10.02;39.26;98893.66;5040675;28;8854;-78
2023/12/25 05:04:01;;;;;;;;;12.00;12.00;;;;;10.09;38.68;98897.00;5083235;28;8850;-79
2023/12/25 05:06:31;;;;;;;;;14.40;12.20;;;;;10.10;38.11;98901.31;5066905;28;8866;-78
2023/12/25 05:09:00;;;;;;;;;12.00;10.40;;;;;10.16;38.57;98906.38;5066751;28;8834;-79
2023/12/25 05:11:29;;;;;;;;;12.60;11.20;;;;;10.11;38.68;98909.16;5067199;28;8834;-79
2023/12/25 05:13:59;;;;;;;;;13.40;13.40;;;;;10.12;38.28;98905.63;5061274;28;9579;-78
2023/12/25 05:16:28;;;;;;;;;12.80;11.20;;;;;10.13;38.21;98902.09;5014789;28;8867;-77
2023/12/25 05:18:57;;;;;;;;;13.00;12.60;;;;;10.15;38.00;98902.91;5027923;28;8909;-78
2023/12/25 05:21:27;;;;;;;;;12.60;12.20;;;;;10.13;37.63;98899.47;5040470;28;9007;-80
2023/12/25 05:23:56;;;;;;;;;12.40;11.00;;;;;10.15;37.95;98894.19;5029345;28;9010;-79
2023/12/25 05:26:27;;;;;;;;;11.40;10.40;;;;;10.23;37.11;98904.44;5013292;28;9773;-78
2023/12/25 05:28:56;;;;;;;;;13.80;12.80;;;;;10.18;37.06;98908.09;5030277;28;8930;-79
2023/12/25 05:31:25;;;;;;;;;13.20;13.00;;;;;10.02;37.02;98918.16;5029424;28;8869;-78
2023/12/25 05:33:54;;;;;;;;;12.20;12.00;;;;;10.16;37.01;98923.03;5028949;28;8899;-79
2023/12/25 05:36:23;;;;;;;;;10.60;10.60;;;;;10.16;36.53;98912.53;5028934;28;8850;-79
2023/12/25 05:38:54;;;;;;;;;11.40;10.80;;;;;10.23;37.11;98913.19;4996736;28;8888;-79
2023/12/25 05:41:41;;;;;;;;;16.80;12.00;;;;;10.28;36.81;98923.56;5045363;28;8858;-78
2023/12/25 05:44:11;;;;;;;;;1.00;0.00;;;;;10.31;36.91;98923.47;4987828;28;8940;-78
2023/12/25 05:46:39;;;;;;;;;14.00;11.20;;;;;10.30;36.74;98925.22;4943744;28;8850;-77
2023/12/25 05:49:09;;;;;;;;;16.40;14.20;;;;;10.32;36.13;98930.44;5012935;28;8845;-79
2023/12/25 05:51:38;;;;;;;;;12.00;11.80;;;;;10.33;36.14;98933.03;5032430;28;9020;-78
2023/12/25 05:54:08;;;;;;;;;13.60;12.60;;;;;10.30;35.96;98932.25;5012323;28;8833;-78
2023/12/25 05:56:37;;;;;;;;;33.40;29.60;;;;;10.38;35.87;98940.75;5012390;28;8983;-77
2023/12/25 05:59:06;;;;;;;;;13.60;13.00;;;;;10.39;36.18;98937.25;5036416;28;8840;-79
2023/12/25 06:01:35;;;;;;;;;17.60;16.20;;;;;10.43;35.83;98936.25;5023374;28;8845;-78
2023/12/25 06:04:05;;;;;;;;;18.40;17.00;;;;;10.31;36.82;98941.84;4974015;28;8862;-78
2023/12/25 06:06:34;;;;;;;;;13.80;13.80;;;;;10.35;36.29;98940.88;4972465;28;8885;-80
2023/12/25 06:09:03;;;;;;;;;12.80;11.40;;;;;10.33;36.63;98948.78;4972814;28;8971;-79
2023/12/25 06:11:35;;;;;;;;;12.00;10.00;;;;;10.31;35.32;98957.59;4964663;28;9837;-78
2023/12/25 06:14:04;;;;;;;;;12.00;12.00;;;;;10.40;35.54;98962.59;4976205;28;8866;-78
2023/12/25 06:16:34;;;;;;;;;15.60;13.80;;;;;10.31;35.49;98955.88;4998548;28;9364;-78
2023/12/25 06:19:03;;;;;;;;;15.60;14.20;;;;;10.36;35.50;98959.19;4969652;28;8867;-78
2023/12/25 06:21:33;;;;;;;;;13.00;12.40;;;;;10.37;35.27;98960.09;5000018;28;8856;-80
2023/12/25 06:24:02;;;;;;;;;14.60;14.60;;;;;10.37;35.46;98955.69;5013589;28;8826;-79
2023/12/25 06:26:33;;;;;;;;;11.80;11.80;;;;;10.37;35.08;98954.81;5032154;28;8882;-78
2023/12/25 06:29:02;;;;;;;;;14.20;14.20;;;;;10.33;34.93;98967.19;5031488;28;8846;-79
2023/12/25 06:31:31;;;;;;;;;18.80;15.80;;;;;10.35;35.17;98973.25;5044735;28;8991;-79
2023/12/25 06:34:00;;;;;;;;;19.20;13.40;;;;;10.32;35.02;98978.59;5047555;28;8858;-80
2023/12/25 06:36:29;;;;;;;;;18.00;14.40;;;;;10.36;34.64;98977.59;5043767;28;8966;-78
2023/12/25 06:38:59;;;;;;;;;12.40;11.40;;;;;10.42;34.41;98983.56;5025116;28;9669;-80
2023/12/25 06:41:28;;;;;;;;;20.40;16.20;;;;;10.46;34.90;98987.81;5009916;28;8895;-79
2023/12/25 06:43:58;;;;;;;;;19.80;14.60;;;;;10.49;34.12;98995.63;5011160;28;8946;-79
2023/12/25 06:46:27;;;;;;;;;17.80;16.40;;;;;10.61;34.66;99005.75;5008975;28;8889;-80
2023/12/25 06:48:56;;;;;;;;;12.80;12.40;;;;;10.67;34.42;99005.59;5011078;28;8971;-78
2023/12/25 06:51:26;;;;;;;;;11.80;11.40;;;;;10.70;34.00;99002.88;4965610;28;8844;-79
2023/12/25 06:53:55;;;;;;;;;15.60;15.40;;;;;10.82;34.41;99008.69;5011020;28;8858;-78
2023/12/25 06:56:24;;;;;;;;;32.60;30.00;;;;;10.92;34.26;99008.38;4990986;28;8890;-77
2023/12/25 06:58:53;;;;;;;;;39.75;34.50;;;;;11.04;34.38;99011.53;4975474;28;8865;-79
2023/12/25 07:01:24;;;;;;;;;56.00;44.75;;;;;11.17;34.90;99007.59;4995382;28;8926;-80
2023/12/25 07:03:53;;;;;;;;;42.50;36.00;;;;;11.24;35.80;99013.50;5011262;28;9125;-78
2023/12/25 07:06:23;;;;;;;;;41.25;35.75;;;;;11.29;35.49;99025.59;4969991;28;8852;-78
2023/12/25 07:08:53;;;;;;;;;50.75;39.75;;;;;11.33;36.44;99032.50;5007215;28;8858;-78
2023/12/25 07:11:22;;;;;;;;;54.00;45.50;;;;;11.37;37.90;99044.66;5016694;28;9117;-79
2023/12/25 07:13:51;;;;;;;;;54.00;45.25;;;;;11.40;37.10;99042.84;5032870;28;8881;-80
2023/12/25 07:16:25;;;;;;;;;55.00;42.75;;;;;11.45;36.59;99054.94;5042274;28;8870;-79
2023/12/25 07:18:55;;;;;;;;;53.75;42.25;;;;;11.42;36.80;99059.44;5055473;28;8870;-80
2023/12/25 07:21:25;;;;;;;;;38.75;35.00;;;;;11.42;36.88;99056.78;5050073;28;8975;-79
2023/12/25 07:23:54;;;;;;;;;22.75;20.00;;;;;11.47;36.76;99065.41;5009593;28;8941;-80
2023/12/25 07:26:24;;;;;;;;;51.00;42.75;;;;;11.51;36.71;99074.94;4959741;28;8878;-80
2023/12/25 07:28:53;;;;;;;;;55.50;44.00;;;;;11.57;37.46;99080.84;4949836;28;8843;-79
2023/12/25 07:31:22;;;;;;;;;54.50;44.75;;;;;11.63;38.02;99077.16;4939023;29;9048;-79
2023/12/25 07:33:53;;;;;;;;;64.50;51.75;;;;;11.70;37.31;99081.31;4936457;28;8886;-79
2023/12/25 07:36:22;;;;;;;;;53.50;44.25;;;;;11.76;37.46;99067.06;4952465;28;8875;-81
2023/12/25 07:38:51;;;;;;;;;55.50;45.50;;;;;11.76;37.43;99073.19;4971393;28;8878;-79
2023/12/25 07:41:23;;;;;;;;;53.25;43.50;;;;;11.93;37.89;99074.44;4993077;28;8920;-80
2023/12/25 07:43:52;;;;;;;;;37.00;30.00;;;;;12.04;37.41;99081.97;4929658;29;8878;-79
2023/12/25 07:46:21;;;;;;;;;58.50;47.00;;;;;12.16;37.85;99092.06;4932693;29;8870;-82
2023/12/25 07:48:51;;;;;;;;;59.75;47.75;;;;;12.19;37.21;99094.63;4945116;28;8918;-81
2023/12/25 07:51:21;;;;;;;;;51.75;42.25;;;;;12.25;37.74;99086.50;4929325;29;9016;-80
2023/12/25 07:53:50;;;;;;;;;47.50;38.25;;;;;12.38;36.14;99096.63;4928941;29;8908;-81
2023/12/25 07:56:18;;;;;;;;;43.75;37.25;;;;;12.51;35.32;99098.75;4966384;28;8896;-78
2023/12/25 07:58:48;;;;;;;;;47.25;39.75;;;;;12.62;35.59;99108.91;4951535;28;8876;-78
2023/12/25 08:01:19;;;;;;;;;38.75;35.00;;;;;12.77;37.15;99106.59;4992648;28;8884;-79
2023/12/25 08:03:48;;;;;;;;;50.25;42.00;;;;;12.76;36.01;99118.09;4993735;28;8891;-79
2023/12/25 08:06:18;;;;;;;;;56.50;45.75;;;;;12.84;36.03;99121.28;5041860;28;9620;-78
2023/12/25 08:08:48;;;;;;;;;58.00;45.75;;;;;12.89;35.10;99128.16;5051364;28;8858;-80
2023/12/25 08:11:17;;;;;;;;;58.50;47.50;;;;;12.96;35.06;99122.63;5069600;28;8877;-80
2023/12/25 08:13:47;;;;;;;;;52.50;44.75;;;;;12.99;35.31;99133.09;5063104;28;8885;-80
2023/12/25 08:16:16;;;;;;;;;55.00;44.75;;;;;13.02;35.19;99138.25;5060782;28;8969;-80
2023/12/25 08:18:46;;;;;;;;;56.50;46.75;;;;;13.06;34.84;99132.81;5037521;28;8846;-79
2023/12/25 08:21:16;;;;;;;;;49.25;41.00;;;;;13.11;34.47;99136.13;5052412;28;8943;-79
2023/12/25 08:23:46;;;;;;;;;47.75;40.50;;;;;13.18;34.07;99146.44;5029338;28;8920;-79
2023/12/25 08:26:15;;;;;;;;;43.75;37.00;;;;;13.24;33.64;99147.09;5012780;28;8883;-80
2023/12/25 08:28:46;;;;;;;;;41.25;36.00;;;;;13.31;33.78;99142.41;5029455;28;9008;-79
2023/12/25 08:31:15;;;;;;;;;48.50;39.00;;;;;13.37;34.16;99146.59;5041846;28;9043;-81
2023/12/25 08:33:44;;;;;;;;;51.25;42.00;;;;;13.43;33.58;99154.28;5009153;28;8896;-80
2023/12/25 08:36:13;;;;;;;;;44.50;38.50;;;;;13.49;33.50;99159.34;4993503;28;8862;-80
2023/12/25 08:38:42;;;;;;;;;47.50;40.00;;;;;13.31;32.91;99166.19;5007679;28;8858;-80
2023/12/25 08:41:13;;;;;;;;;47.25;37.25;;;;;13.40;34.78;99168.47;5000083;28;9010;-80
2023/12/25 08:43:42;;;;;;;;;46.50;39.50;;;;;13.45;32.75;99163.88;5019706;28;8926;-80
2023/12/25 08:46:18;;;;;;;;;44.50;37.25;;;;;13.36;32.60;99173.94;5022930;28;8938;-80
2023/12/25 08:48:48;;;;;;;;;38.75;33.50;;;;;13.00;32.80;99161.22;4977287;28;8960;-81
2023/12/25 08:51:17;;;;;;;;;41.25;36.00;;;;;13.28;33.21;99164.53;4977814;28;8848;-79
2023/12/25 08:53:47;;;;;;;;;45.00;35.50;;;;;13.47;34.08;99163.81;4969510;28;8860;-80
2023/12/25 08:56:24;;;;;;;;;48.50;40.00;;;;;13.64;34.04;99161.38;4936405;28;9685;-82
2023/12/25 08:58:54;;;;;;;;;42.25;36.75;;;;;13.71;34.13;99156.69;4961981;28;8887;-80
2023/12/25 09:01:24;;;;;;;;;27.20;24.20;;;;;12.87;32.57;99153.72;4952089;28;8986;-79
2023/12/25 09:03:53;;;;;;;;;29.40;25.80;;;;;12.83;32.64;99151.25;4951900;28;8883;-80
2023/12/25 09:06:23;;;;;;;;;32.20;31.00;;;;;12.45;32.83;99150.84;4967548;28;8879;-79
2023/12/25 09:08:53;;;;;;;;;19.40;17.00;;;;;12.84;32.26;99156.47;4935185;28;8880;-80
2023/12/25 09:11:22;;;;;;;;;33.60;31.20;;;;;12.96;32.01;99167.50;4973123;28;8883;-81
2023/12/25 09:13:53;;;;;;;;;32.40;28.40;;;;;12.94;32.49;99167.56;5026065;28;8953;-81
2023/12/25 09:16:22;;;;;;;;;23.60;22.60;;;;;12.57;32.28;99171.50;5019243;28;8891;-79
2023/12/25 09:19:11;;;;;;;;;27.00;26.00;;;;;12.82;32.61;99175.88;5072644;28;8863;-81
2023/12/25 09:21:40;;;;;;;;;23.40;20.80;;;;;12.52;32.67;99176.94;5011062;28;8966;-78
2023/12/25 09:24:09;;;;;;;;;22.60;20.80;;;;;12.20;32.96;99177.16;5041101;28;8924;-80
2023/12/25 09:26:38;;;;;;;;;25.80;24.20;;;;;12.01;32.88;99184.81;5021078;28;9670;-80
2023/12/25 09:29:11;;;;;;;;;19.60;17.40;;;;;11.97;33.16;99175.28;5032687;28;8932;-79
2023/12/25 09:31:40;;;;;;;;;16.40;13.00;;;;;11.85;33.35;99179.19;5049642;28;8960;-79
2023/12/25 09:34:09;;;;;;;;;22.20;19.40;;;;;11.84;33.22;99170.44;5016981;28;8905;-80
2023/12/25 09:36:38;;;;;;;;;17.40;16.20;;;;;12.04;33.35;99175.03;4983291;28;9046;-79
2023/12/25 09:39:07;;;;;;;;;26.60;26.60;;;;;12.26;32.96;99167.28;5012972;28;8823;-80
2023/12/25 09:41:37;;;;;;;;;29.20;27.60;;;;;12.61;32.61;99169.59;5028689;28;8885;-78
2023/12/25 09:44:09;;;;;;;;;32.00;30.20;;;;;13.01;33.03;99173.47;5003135;28;8951;-81
2023/12/25 09:46:39;;;;;;;;;29.80;23.00;;;;;13.29;32.85;99175.94;4967290;28;8874;-79
2023/12/25 09:49:08;;;;;;;;;23.60;23.00;;;;;13.37;31.86;99165.06;5037903;28;9645;-79
2023/12/25 09:51:37;;;;;;;;;11.20;9.80;;;;;13.63;31.83;99164.91;5039419;28;9517;-81
2023/12/25 09:54:06;;;;;;;;;26.60;25.80;;;;;13.83;31.60;99158.03;5077681;28;8886;-80
2023/12/25 09:56:40;;;;;;;;;23.60;22.00;;;;;13.42;31.18;99160.50;5071406;28;8878;-79
2023/12/25 09:59:11;;;;;;;;;28.60;27.00;;;;;13.66;31.25;99145.47;5043044;28;8874;-80
2023/12/25 10:01:41;;;;;;;;;27.00;24.40;;;;;13.94;31.08;99149.63;5072261;28;8878;-80
2023/12/25 10:04:11;;;;;;;;;29.00;26.60;;;;;14.15;31.59;99143.47;5055170;28;9631;-82
2023/12/25 10:06:43;;;;;;;;;18.80;18.20;;;;;13.66;30.70;99148.09;5070999;28;8881;-81
2023/12/25 10:09:13;;;;;;;;;29.60;27.80;;;;;13.33;31.14;99159.06;5071854;28;8858;-80
2023/12/25 10:11:42;;;;;;;;;27.40;26.80;;;;;13.12;31.67;99147.53;5051281;28;8987;-80
2023/12/25 10:14:12;;;;;;;;;30.60;27.80;;;;;13.67;31.74;99134.81;5052981;28;8842;-80
2023/12/25 10:16:41;;;;;;;;;25.00;24.20;;;;;13.96;31.42;99134.56;5049469;28;9009;-81
2023/12/25 10:19:11;;;;;;;;;26.20;22.80;;;;;14.04;29.82;99143.06;5018256;28;8858;-82
2023/12/25 10:21:45;;;;;;;;;19.40;18.60;;;;;14.17;30.18;99151.31;5053495;28;8955;-80
2023/12/25 10:24:15;;;;;;;;;26.40;23.20;;;;;13.98;30.44;99148.59;5033662;28;8846;-81
2023/12/25 10:26:45;;;;;;;;;24.60;24.60;;;;;13.83;29.83;99158.03;5015939;28;8904;-80
2023/12/25 10:29:16;;;;;;;;;23.60;20.80;;;;;13.50;30.79;99161.88;5034154;28;8881;-81
2023/12/25 10:31:47;;;;;;;;;21.20;20.60;;;;;13.99;30.47;99150.31;5032295;28;9704;-80
2023/12/25 10:34:20;;;;;;;;;24.00;20.80;;;;;13.82;29.98;99151.84;5049920;28;8842;-79
2023/12/25 10:36:53;;;;;;;;;24.60;24.40;;;;;13.47;30.19;99161.19;5050516;28;8906;-80
2023/12/25 10:39:33;;;;;;;;;18.00;17.60;;;;;13.86;30.36;99145.53;5034747;28;9120;-81
2023/12/25 10:42:03;;;;;;;;;22.20;22.20;;;;;13.81;29.91;99146.63;5037054;28;8985;-79
2023/12/25 10:44:35;;;;;;;;;22.60;21.40;;;;;13.46;30.43;99147.09;5073120;28;8842;-81
2023/12/25 10:47:07;;;;;;;;;22.20;22.20;;;;;13.88;29.68;99146.34;5037616;28;8890;-80
2023/12/25 10:49:37;;;;;;;;;22.60;20.60;;;;;13.63;29.79;99148.22;5037138;28;8866;-79
2023/12/25 10:52:08;;;;;;;;;23.40;21.40;;;;;13.27;30.21;99160.16;5071394;28;8880;-80
2023/12/25 10:54:38;;;;;;;;;24.60;22.80;;;;;13.34;30.61;99150.22;5076706;28;8969;-81
2023/12/25 10:57:09;;;;;;;;;25.40;25.40;;;;;13.66;30.38;99142.81;5090995;28;8870;-81
2023/12/25 10:59:43;;;;;;;;;19.40;18.20;;;;;13.38;30.52;99148.34;5061794;28;8847;-81
2023/12/25 11:02:15;;;;;;;;;17.20;16.40;;;;;13.52;29.63;99148.63;5060373;28;8881;-80
2023/12/25 11:04:46;;;;;;;;;16.80;16.80;;;;;13.70;29.85;99141.78;5070791;28;9635;-80
2023/12/25 11:07:17;;;;;;;;;22.00;19.40;;;;;14.06;29.37;99126.22;5059897;28;8845;-80
2023/12/25 11:09:48;;;;;;;;;21.40;19.80;;;;;14.43;30.05;99111.44;5057233;28;8882;-79
2023/12/25 11:12:19;;;;;;;;;22.00;22.00;;;;;14.45;30.58;99112.22;5073179;28;9631;-81
2023/12/25 11:14:51;;;;;;;;;19.60;18.80;;;;;14.78;29.62;99101.06;5086932;28;8846;-80
2023/12/25 11:17:20;;;;;;;;;16.80;16.80;;;;;14.85;29.18;99097.22;5028579;28;8893;-81
2023/12/25 11:19:50;;;;;;;;;21.40;21.40;;;;;15.01;28.31;99093.88;5067377;28;8978;-81
2023/12/25 11:22:28;;;;;;;;;15.60;15.60;;;;;15.11;29.31;99094.28;5076958;28;8858;-81
2023/12/25 11:24:58;;;;;;;;;24.60;21.80;;;;;14.97;28.51;99106.38;5056937;28;8895;-80
2023/12/25 11:27:29;;;;;;;;;20.00;18.80;;;;;15.23;29.40;99096.38;5070119;28;8866;-81
2023/12/25 11:30:04;;;;;;;;;17.40;17.40;;;;;15.34;27.97;99098.50;5064754;28;8899;-81
2023/12/25 11:32:36;;;;;;;;;22.20;18.80;;;;;14.25;29.14;99104.28;5059031;28;8855;-81
2023/12/25 11:35:06;;;;;;;;;19.20;19.20;;;;;14.76;29.32;99096.78;5069589;28;9583;-80
2023/12/25 11:37:35;;;;;;;;;24.40;23.20;;;;;15.07;28.96;99096.22;5068786;28;8894;-81
2023/12/25 11:40:06;;;;;;;;;25.80;24.00;;;;;15.19;29.29;99085.06;5064199;28;8971;-82